Time;durP1;ratioP1;P1;durP2;ratioP2;P2;SDS_P1;SDS_P2;PMS_P1;PMS_P2;Temp;Humidity;BMP_temperature;BMP_pressure;BME280_temperature;BME280_humidity;BME280_pressure;Samples;Min_cycle;Max_cycle;Signal;HPM_P1;HPM_P2
2024/04/24 00:02:07;;;;;;;8.70;3.20;;;6.70;99.90;;;;;;5450668;26;20266;-69
2024/04/24 00:04:38;;;;;;;8.33;3.30;;;6.70;99.90;;;;;;5454663;26;20233;-69
2024/04/24 00:07:09;;;;;;;11.50;2.80;;;6.80;99.90;;;;;;5456860;26;20283;-68
2024/04/24 00:09:39;;;;;;;8.07;3.30;;;6.80;99.90;;;;;;5444933;26;20643;-69
2024/04/24 00:12:12;;;;;;;8.87;2.80;;;6.80;99.90;;;;;;5453136;26;20265;-69
2024/04/24 00:14:42;;;;;;;6.30;2.60;;;6.80;99.90;;;;;;5450100;26;20285;-67
2024/04/24 00:17:12;;;;;;;8.97;3.10;;;6.80;99.90;;;;;;5455842;26;20257;-68
2024/04/24 00:19:43;;;;;;;8.83;2.73;;;6.80;99.90;;;;;;5458378;26;20232;-69
2024/04/24 00:22:13;;;;;;;4.27;2.43;;;6.80;99.90;;;;;;5452455;26;20719;-68
2024/04/24 00:24:43;;;;;;;6.00;2.77;;;6.80;99.90;;;;;;5450408;25;20307;-68
2024/04/24 00:27:16;;;;;;;5.83;2.33;;;6.90;99.90;;;;;;5450363;26;20264;-68
2024/04/24 00:29:46;;;;;;;11.87;2.57;;;6.90;99.90;;;;;;5464316;26;20248;-68
2024/04/24 00:32:16;;;;;;;6.33;2.27;;;6.80;99.90;;;;;;5453400;26;20308;-68
2024/04/24 00:34:47;;;;;;;4.73;2.00;;;6.80;99.90;;;;;;5446552;26;20282;-68
2024/04/24 00:37:17;;;;;;;6.87;2.17;;;6.70;99.90;;;;;;5460807;26;20275;-68
2024/04/24 00:39:48;;;;;;;6.47;2.43;;;6.70;99.90;;;;;;5448160;26;20306;-68
2024/04/24 00:42:24;;;;;;;8.47;2.40;;;6.60;99.90;;;;;;5445953;26;20284;-68
2024/04/24 00:44:54;;;;;;;4.80;2.03;;;6.60;99.90;;;;;;5454248;25;20249;-68
2024/04/24 00:47:25;;;;;;;5.83;1.80;;;6.60;99.90;;;;;;5456919;25;20790;-68
2024/04/24 00:49:56;;;;;;;2.70;1.97;;;6.40;99.90;;;;;;5454928;25;20256;-68
2024/04/24 00:52:27;;;;;;;8.80;2.17;;;6.40;99.90;;;;;;5447010;26;20701;-68
2024/04/24 00:54:57;;;;;;;4.93;1.90;;;6.40;99.90;;;;;;5445333;26;20248;-68
2024/04/24 00:57:30;;;;;;;5.20;2.07;;;6.40;99.90;;;;;;5441016;26;20288;-68
2024/04/24 01:00:00;;;;;;;4.47;2.00;;;6.40;99.90;;;;;;5449107;26;20297;-68
2024/04/24 01:02:30;;;;;;;4.33;2.03;;;6.40;99.90;;;;;;5450995;26;20295;-68
2024/04/24 01:05:01;;;;;;;7.20;2.00;;;6.40;99.90;;;;;;5455309;26;20237;-68
2024/04/24 01:07:31;;;;;;;5.77;2.00;;;6.40;99.90;;;;;;5453322;26;20256;-69
2024/04/24 01:10:01;;;;;;;3.50;2.17;;;6.40;99.90;;;;;;5452419;25;20292;-68
2024/04/24 01:12:34;;;;;;;10.90;2.20;;;6.30;99.90;;;;;;5444554;26;20295;-68
2024/04/24 01:15:05;;;;;;;5.93;2.03;;;6.30;99.90;;;;;;5453253;26;20316;-69
2024/04/24 01:17:36;;;;;;;2.80;1.93;;;6.20;99.90;;;;;;5448648;26;20789;-69
2024/04/24 01:20:12;;;;;;;7.30;2.40;;;6.20;99.90;;;;;;5450089;26;20369;-68
2024/04/24 01:23:03;;;;;;;5.93;2.07;;;6.20;99.90;;;;;;5454166;26;20259;-68
2024/04/24 01:25:41;;;;;;;9.87;2.40;;;6.10;99.90;;;;;;5451105;26;20233;-69
2024/04/24 01:28:14;;;;;;;5.90;2.50;;;6.20;99.90;;;;;;5453136;26;20287;-69
2024/04/24 01:30:44;;;;;;;7.57;2.30;;;6.20;99.90;;;;;;5447658;26;20304;-69
2024/04/24 01:33:14;;;;;;;8.50;2.30;;;6.30;99.90;;;;;;5446943;26;20791;-69
2024/04/24 01:35:44;;;;;;;8.80;2.53;;;6.20;99.90;;;;;;5447840;26;20265;-69
2024/04/24 01:38:15;;;;;;;4.33;2.10;;;6.30;99.90;;;;;;5448052;26;20284;-69
2024/04/24 01:40:45;;;;;;;8.93;2.20;;;6.30;99.90;;;;;;5449806;26;20831;-69
2024/04/24 01:43:18;;;;;;;4.63;1.80;;;6.20;99.90;;;;;;5451241;26;20273;-69
2024/04/24 01:45:48;;;;;;;7.20;2.03;;;6.20;99.90;;;;;;5454638;25;20255;-69
2024/04/24 01:48:18;;;;;;;7.80;2.27;;;6.20;99.90;;;;;;5446626;26;20287;-69
2024/04/24 01:50:48;;;;;;;7.00;2.20;;;6.20;99.90;;;;;;5446789;26;20868;-69
2024/04/24 01:53:19;;;;;;;2.87;1.87;;;6.10;99.90;;;;;;5461207;25;20647;-70
2024/04/24 01:55:49;;;;;;;5.77;2.33;;;6.10;99.90;;;;;;5450059;26;20232;-69
2024/04/24 01:58:21;;;;;;;7.83;2.10;;;6.10;99.90;;;;;;5451845;26;20229;-69
2024/04/24 02:00:52;;;;;;;5.47;2.00;;;6.10;99.90;;;;;;5447000;26;20854;-69
2024/04/24 02:03:22;;;;;;;9.60;2.43;;;6.00;99.90;;;;;;5454604;26;20249;-69
2024/04/24 02:05:52;;;;;;;6.40;2.47;;;6.00;99.90;;;;;;5453339;26;20732;-69
2024/04/24 02:08:23;;;;;;;5.27;2.30;;;5.90;99.90;;;;;;5446695;26;20288;-69
2024/04/24 02:10:53;;;;;;;2.87;2.00;;;5.90;99.90;;;;;;5449503;26;20275;-69
2024/04/24 02:13:26;;;;;;;6.17;2.43;;;5.80;99.90;;;;;;5447319;26;20290;-69
2024/04/24 02:15:53;;;;;;;5.07;2.50;;;5.80;99.90;;;;;;5450907;25;20256;-69
2024/04/24 02:18:23;;;;;;;6.90;2.37;;;5.70;99.90;;;;;;5445804;26;20282;-69
2024/04/24 02:20:53;;;;;;;7.93;2.10;;;5.70;99.90;;;;;;5447759;26;20685;-69
2024/04/24 02:23:31;;;;;;;2.67;2.27;;;5.70;99.90;;;;;;5459532;26;20915;-69
2024/04/24 02:25:58;;;;;;;9.57;2.77;;;5.70;99.90;;;;;;5443784;26;20291;-68
2024/04/24 02:28:31;;;;;;;3.10;2.40;;;5.70;99.90;;;;;;5440383;26;20245;-69
2024/04/24 02:31:02;;;;;;;7.57;2.37;;;5.70;99.90;;;;;;5462404;26;20256;-69
2024/04/24 02:33:32;;;;;;;5.10;2.23;;;5.60;99.90;;;;;;5450784;26;20260;-69
2024/04/24 02:36:02;;;;;;;3.73;2.40;;;5.60;99.90;;;;;;5448813;25;20263;-69
2024/04/24 02:38:32;;;;;;;2.60;2.17;;;5.60;99.90;;;;;;5444667;26;20604;-69
2024/04/24 02:41:00;;;;;;;5.43;2.20;;;5.60;99.90;;;;;;5444118;26;20237;-69
2024/04/24 02:43:33;;;;;;;6.13;2.37;;;5.50;99.90;;;;;;5440052;26;20253;-69
2024/04/24 02:46:03;;;;;;;6.50;2.10;;;5.50;99.90;;;;;;5447485;26;20357;-69
2024/04/24 02:48:31;;;;;;;7.03;2.33;;;5.40;99.90;;;;;;5452709;25;20632;-69
2024/04/24 02:51:01;;;;;;;2.47;2.30;;;5.40;99.90;;;;;;5451892;26;20260;-69
2024/04/24 02:53:31;;;;;;;9.37;2.50;;;5.30;99.90;;;;;;5454831;26;20326;-69
2024/04/24 02:56:01;;;;;;;8.57;2.17;;;5.30;99.90;;;;;;5445387;26;20264;-69
2024/04/24 02:58:34;;;;;;;4.07;2.27;;;5.30;99.90;;;;;;5457533;26;20258;-69
2024/04/24 03:01:04;;;;;;;4.67;2.27;;;5.30;99.90;;;;;;5453223;26;20259;-69
2024/04/24 03:03:35;;;;;;;3.57;2.20;;;5.20;99.90;;;;;;5459821;26;20287;-69
2024/04/24 03:06:05;;;;;;;7.50;2.10;;;5.20;99.90;;;;;;5447123;25;20301;-69
2024/04/24 03:08:35;;;;;;;8.30;2.40;;;5.20;99.90;;;;;;5442982;25;20262;-69
2024/04/24 03:11:06;;;;;;;2.83;2.13;;;5.10;99.90;;;;;;5455522;26;20595;-69
2024/04/24 03:13:39;;;;;;;8.57;2.37;;;5.10;99.90;;;;;;5444871;26;20337;-69
2024/04/24 03:16:09;;;;;;;6.87;2.33;;;5.00;99.90;;;;;;5449225;26;20297;-69
2024/04/24 03:18:39;;;;;;;6.53;2.20;;;5.00;99.90;;;;;;5452002;25;20247;-69
2024/04/24 03:21:09;;;;;;;7.33;2.30;;;5.00;99.90;;;;;;5458115;26;20256;-69
2024/04/24 03:23:39;;;;;;;12.70;2.80;;;5.00;99.90;;;;;;5450347;26;20620;-69
2024/04/24 03:26:10;;;;;;;10.20;2.43;;;5.00;99.90;;;;;;5444742;26;20302;-69
2024/04/24 03:28:43;;;;;;;5.47;2.60;;;5.10;99.90;;;;;;5442366;26;20248;-69
2024/04/24 03:31:13;;;;;;;4.63;2.50;;;5.10;99.90;;;;;;5444890;26;20770;-69
2024/04/24 03:33:43;;;;;;;9.30;3.03;;;5.30;99.90;;;;;;5445583;26;20727;-69
2024/04/24 03:36:13;;;;;;;7.53;2.57;;;5.30;99.90;;;;;;5441095;25;22112;-69
2024/04/24 03:38:47;;;;;;;7.63;2.70;;;5.40;99.90;;;;;;5448131;26;20257;-69
2024/04/24 03:41:17;;;;;;;3.70;2.23;;;5.30;99.90;;;;;;5452253;26;21242;-68
2024/04/24 03:43:51;;;;;;;3.00;1.90;;;5.40;99.90;;;;;;5450651;26;20723;-67
2024/04/24 03:46:23;;;;;;;2.20;2.00;;;5.30;99.90;;;;;;5450380;26;20241;-68
2024/04/24 03:48:57;;;;;;;6.83;1.97;;;5.30;99.90;;;;;;5454956;26;20252;-68
2024/04/24 03:51:27;;;;;;;4.00;1.83;;;5.40;99.90;;;;;;5451826;26;20253;-69
2024/04/24 03:53:57;;;;;;;3.90;1.90;;;5.40;99.90;;;;;;5452007;26;20315;-68
2024/04/24 03:56:27;;;;;;;5.43;1.70;;;5.40;99.90;;;;;;5454219;26;20269;-68
2024/04/24 03:59:01;;;;;;;2.00;1.70;;;5.40;99.90;;;;;;5450785;26;20237;-68
2024/04/24 04:01:32;;;;;;;3.63;1.80;;;5.40;98.10;;;;;;5451619;26;20224;-68
2024/04/24 04:04:02;;;;;;;1.70;1.60;;;5.40;82.60;;;;;;5453036;26;20253;-68
2024/04/24 04:06:33;;;;;;;4.77;1.97;;;5.50;55.40;;;;;;5448759;26;20244;-68
2024/04/24 04:09:03;;;;;;;3.67;1.87;;;5.50;42.30;;;;;;5452520;26;20324;-69
2024/04/24 04:11:33;;;;;;;5.37;2.23;;;5.40;28.30;;;;;;5444314;26;20265;-69
2024/04/24 04:14:08;;;;;;;2.37;1.83;;;5.30;44.30;;;;;;5454401;26;20276;-69
2024/04/24 04:16:39;;;;;;;4.30;1.97;;;5.30;69.30;;;;;;5449227;26;20244;-69
2024/04/24 04:19:09;;;;;;;4.03;2.00;;;5.40;74.90;;;;;;5455265;26;20244;-69
2024/04/24 04:21:39;;;;;;;8.67;2.17;;;5.40;91.80;;;;;;5455627;26;20256;-69
2024/04/24 04:24:10;;;;;;;2.13;1.93;;;5.40;97.10;;;;;;5443982;26;20244;-69
2024/04/24 04:26:40;;;;;;;5.10;2.03;;;5.40;99.90;;;;;;5455581;26;20335;-68
2024/04/24 04:29:13;;;;;;;2.80;1.80;;;5.40;99.90;;;;;;5451459;26;20259;-68
2024/04/24 04:31:43;;;;;;;5.90;2.07;;;5.40;99.90;;;;;;5453076;26;20337;-69
2024/04/24 04:34:13;;;;;;;5.90;2.57;;;5.30;99.90;;;;;;5452310;26;20610;-68
2024/04/24 04:36:43;;;;;;;8.57;4.60;;;5.30;99.90;;;;;;5437954;26;20248;-69
2024/04/24 04:39:14;;;;;;;27.40;10.57;;;5.30;99.90;;;;;;5451248;26;20248;-68
2024/04/24 04:41:44;;;;;;;27.30;10.57;;;5.30;99.90;;;;;;5457894;26;20378;-69
2024/04/24 04:44:17;;;;;;;11.00;4.80;;;5.20;99.90;;;;;;5450595;26;20708;-69
2024/04/24 04:46:47;;;;;;;19.37;5.20;;;5.20;99.90;;;;;;5470674;25;20237;-68
2024/04/24 04:49:18;;;;;;;6.43;3.80;;;5.20;99.90;;;;;;5447522;26;20799;-69
2024/04/24 04:51:48;;;;;;;4.93;4.10;;;5.30;99.90;;;;;;5449183;26;20252;-69
2024/04/24 04:54:18;;;;;;;9.77;4.30;;;5.30;99.90;;;;;;5452605;26;20261;-69
2024/04/24 04:56:48;;;;;;;11.90;4.40;;;5.40;99.90;;;;;;5452082;26;20261;-69
2024/04/24 04:59:23;;;;;;;8.33;4.13;;;5.40;99.90;;;;;;5453812;26;20300;-69
2024/04/24 05:01:53;;;;;;;10.50;4.60;;;5.50;99.90;;;;;;5452578;26;20284;-69
2024/04/24 05:04:27;;;;;;;13.83;6.40;;;5.50;99.90;;;;;;5450163;26;20236;-69
2024/04/24 05:06:57;;;;;;;11.03;5.03;;;5.60;99.90;;;;;;5455548;26;20747;-69
2024/04/24 05:09:29;;;;;;;6.53;4.10;;;5.60;99.90;;;;;;5439109;26;21120;-69
2024/04/24 05:11:59;;;;;;;8.03;3.87;;;5.70;99.90;;;;;;5447664;26;20340;-69
2024/04/24 05:14:32;;;;;;;10.23;5.27;;;5.70;99.90;;;;;;5435188;26;20326;-69
2024/04/24 05:17:02;;;;;;;7.67;4.30;;;5.70;99.90;;;;;;5453952;26;20275;-69
2024/04/24 05:19:32;;;;;;;9.17;3.40;;;5.70;99.90;;;;;;5449451;26;20229;-69
2024/04/24 05:22:02;;;;;;;9.17;3.73;;;5.80;99.90;;;;;;5443927;26;20254;-69
2024/04/24 05:24:32;;;;;;;8.20;3.03;;;5.80;99.90;;;;;;5453460;26;20294;-69
2024/04/24 05:29:51;;;;;;;6.37;3.30;;;5.80;99.90;;;;;;5448195;26;20309;-69
2024/04/24 05:32:21;;;;;;;6.23;3.20;;;5.80;99.90;;;;;;5450042;26;20258;-69
2024/04/24 05:34:51;;;;;;;10.67;2.93;;;5.70;99.90;;;;;;5450455;25;20265;-68
2024/04/24 05:37:21;;;;;;;7.80;3.03;;;5.60;99.90;;;;;;5452465;26;20326;-69
2024/04/24 05:39:51;;;;;;;4.93;3.13;;;5.60;99.90;;;;;;5453265;26;20257;-69
2024/04/24 05:42:23;;;;;;;11.90;5.50;;;5.50;99.90;;;;;;5444568;26;20298;-69
2024/04/24 05:44:56;;;;;;;7.63;4.03;;;5.60;99.90;;;;;;5445317;26;20249;-69
2024/04/24 05:47:29;;;;;;;12.50;5.43;;;5.60;99.90;;;;;;5450826;25;20325;-69
2024/04/24 05:49:59;;;;;;;6.30;4.10;;;5.60;99.90;;;;;;5449073;26;20241;-69
2024/04/24 05:52:30;;;;;;;7.67;3.90;;;5.60;99.90;;;;;;5448439;26;20265;-69
2024/04/24 05:55:00;;;;;;;4.80;2.70;;;5.70;99.90;;;;;;5452561;26;20320;-69
2024/04/24 05:57:30;;;;;;;5.97;3.00;;;5.80;99.90;;;;;;5452855;26;20261;-69
2024/04/24 06:00:03;;;;;;;4.53;3.13;;;5.80;99.90;;;;;;5450638;26;20308;-69
2024/04/24 06:02:34;;;;;;;7.60;3.30;;;5.90;99.90;;;;;;5444537;25;20261;-69
2024/04/24 06:05:04;;;;;;;11.30;5.00;;;5.90;99.90;;;;;;5449202;25;20278;-70
2024/04/24 06:07:34;;;;;;;7.90;3.37;;;6.00;99.90;;;;;;5452906;26;20233;-69
2024/04/24 06:10:05;;;;;;;3.53;2.63;;;6.20;99.90;;;;;;5449425;26;20287;-69
2024/04/24 06:12:35;;;;;;;6.67;2.60;;;6.30;99.90;;;;;;5458790;26;20313;-69
2024/04/24 06:15:08;;;;;;;6.10;2.70;;;6.50;99.90;;;;;;5460718;26;20308;-69
2024/04/24 06:17:38;;;;;;;5.30;3.67;;;6.70;99.90;;;;;;5456232;26;20296;-69
2024/04/24 06:20:09;;;;;;;10.13;2.77;;;7.00;99.90;;;;;;5451366;26;20280;-69
2024/04/24 06:22:39;;;;;;;5.00;2.77;;;7.20;99.90;;;;;;5448725;26;20279;-69
2024/04/24 06:25:10;;;;;;;6.00;2.73;;;7.50;76.10;;;;;;5472999;26;20308;-69
2024/04/24 06:27:40;;;;;;;4.93;2.43;;;7.60;1.00;;;;;;5459217;26;20703;-69
2024/04/24 06:30:13;;;;;;;5.53;2.60;;;7.60;1.00;;;;;;5447763;26;20684;-69
2024/04/24 06:32:44;;;;;;;4.43;2.43;;;7.50;1.00;;;;;;5458673;26;20707;-69
2024/04/24 06:35:17;;;;;;;4.30;2.13;;;7.20;1.00;;;;;;5460764;26;20800;-68
2024/04/24 06:37:47;;;;;;;7.57;2.50;;;7.10;1.00;;;;;;5455435;25;20245;-68
2024/04/24 06:40:18;;;;;;;5.67;2.70;;;6.90;1.00;;;;;;5459117;26;20245;-69
2024/04/24 06:42:48;;;;;;;6.67;2.50;;;6.90;1.00;;;;;;5455933;26;20320;-69
2024/04/24 06:45:21;;;;;;;4.60;2.80;;;6.90;1.00;;;;;;5460411;25;20249;-69
2024/04/24 06:47:51;;;;;;;8.60;3.30;;;7.00;3.50;;;;;;5453608;26;20283;-69
2024/04/24 06:50:22;;;;;;;10.20;2.60;;;7.10;25.70;;;;;;5456474;26;20288;-69
2024/04/24 06:52:52;;;;;;;6.93;2.60;;;7.20;1.00;;;;;;5455810;25;20249;-68
2024/04/24 06:55:22;;;;;;;5.73;2.57;;;7.20;1.00;;;;;;5451021;26;20267;-69
2024/04/24 06:57:53;;;;;;;2.90;2.57;;;7.20;1.00;;;;;;5452192;26;20652;-69
2024/04/24 07:00:30;;;;;;;7.13;3.23;;;7.10;1.00;;;;;;5460147;26;20248;-69
2024/04/24 07:03:00;;;;;;;6.60;2.70;;;7.10;1.00;;;;;;5448798;25;20609;-69
2024/04/24 07:05:31;;;;;;;5.90;2.57;;;7.00;1.00;;;;;;5447696;26;20728;-68
2024/04/24 07:08:02;;;;;;;4.50;2.63;;;7.00;25.00;;;;;;5452886;25;20329;-69
2024/04/24 07:10:32;;;;;;;7.70;2.60;;;7.10;6.50;;;;;;5449808;26;20764;-69
2024/04/24 07:13:04;;;;;;;6.53;2.13;;;7.30;9.50;;;;;;5457582;26;20282;-69
2024/04/24 07:15:37;;;;;;;6.07;2.53;;;7.40;1.00;;;;;;5459986;25;20294;-69
2024/04/24 07:18:08;;;;;;;5.60;2.40;;;7.60;1.00;;;;;;5459089;25;20687;-69
2024/04/24 07:20:38;;;;;;;4.87;2.20;;;7.70;1.00;;;;;;5459221;26;20297;-69
2024/04/24 07:23:08;;;;;;;6.13;2.87;;;7.90;1.00;;;;;;5452557;26;20816;-69
2024/04/24 07:25:38;;;;;;;4.93;2.07;;;8.00;1.00;;;;;;5459023;26;20572;-69
2024/04/24 07:28:08;;;;;;;5.37;2.57;;;8.00;1.00;;;;;;5467176;26;20289;-69
2024/04/24 07:30:41;;;;;;;3.37;2.20;;;8.20;1.00;;;;;;5462712;26;20328;-69
2024/04/24 07:33:12;;;;;;;4.83;2.57;;;8.30;1.00;;;;;;5451531;26;20283;-69
2024/04/24 07:35:43;;;;;;;6.80;2.47;;;8.50;1.00;;;;;;5464487;26;20256;-69
2024/04/24 07:38:15;;;;;;;6.30;2.57;;;8.70;91.70;;;;;;5459099;26;20751;-69
2024/04/24 07:40:46;;;;;;;6.67;3.00;;;8.70;1.00;;;;;;5447652;26;20275;-69
2024/04/24 07:43:16;;;;;;;5.80;2.27;;;8.70;99.90;;;;;;5448445;26;20569;-69
2024/04/24 07:45:49;;;;;;;5.57;2.43;;;8.80;1.00;;;;;;5424168;26;20258;-69
2024/04/24 07:48:20;;;;;;;5.27;2.37;;;8.80;99.90;;;;;;5422929;26;20627;-69
2024/04/24 07:50:53;;;;;;;4.67;2.17;;;8.80;1.00;;;;;;5413338;26;20362;-69
2024/04/24 07:53:23;;;;;;;2.87;2.00;;;8.90;1.00;;;;;;5426935;26;20257;-69
2024/04/24 07:55:54;;;;;;;5.33;2.13;;;9.10;99.90;;;;;;5419707;26;20752;-68
2024/04/24 07:58:25;;;;;;;4.30;2.20;;;9.30;1.00;;;;;;5425906;26;21073;-69
2024/04/24 08:00:59;;;;;;;5.13;2.10;;;9.60;99.90;;;;;;5417502;26;20305;-69
2024/04/24 08:03:29;;;;;;;7.30;2.40;;;9.50;99.90;;;;;;5416160;26;20294;-68
2024/04/24 08:06:00;;;;;;;4.37;2.00;;;8.90;38.00;;;;;;5410182;26;20270;-69
2024/04/24 08:08:30;;;;;;;3.60;1.80;;;8.40;1.00;;;;;;5426015;26;20253;-67
2024/04/24 08:11:00;;;;;;;6.87;1.90;;;7.90;99.90;;;;;;5421216;26;20354;-67
2024/04/24 08:13:30;;;;;;;5.07;2.03;;;7.50;99.90;;;;;;5417020;26;20246;-68
2024/04/24 08:16:03;;;;;;;5.40;1.63;;;7.20;1.00;;;;;;5422848;26;20776;-68
2024/04/24 08:18:34;;;;;;;3.60;1.90;;;7.10;1.00;;;;;;5418272;26;20300;-68
2024/04/24 08:21:04;;;;;;;3.13;1.70;;;6.80;1.00;;;;;;5431507;26;20257;-68
2024/04/24 08:23:34;;;;;;;4.87;1.97;;;6.70;1.00;;;;;;5415978;26;20288;-68
2024/04/24 08:26:04;;;;;;;5.57;2.07;;;6.60;35.70;;;;;;5417210;26;20246;-68
2024/04/24 08:28:36;;;;;;;4.77;2.33;;;6.60;71.10;;;;;;5420338;26;20242;-68
2024/04/24 08:31:12;;;;;;;4.37;2.10;;;6.60;96.00;;;;;;5425848;26;20251;-68
2024/04/24 08:33:43;;;;;;;4.17;2.10;;;6.70;98.10;;;;;;5420886;26;20295;-68
2024/04/24 08:36:14;;;;;;;3.13;2.10;;;6.70;99.90;;;;;;5431485;26;20264;-68
2024/04/24 08:38:44;;;;;;;3.57;2.23;;;6.70;98.30;;;;;;5448744;26;20270;-68
2024/04/24 08:41:15;;;;;;;9.10;2.70;;;6.80;99.90;;;;;;5446982;26;21080;-68
2024/04/24 08:43:46;;;;;;;3.77;1.70;;;7.10;39.50;;;;;;5454386;26;20653;-68
2024/04/24 08:46:21;;;;;;;3.07;1.90;;;7.40;1.00;;;;;;5452528;26;20300;-68
2024/04/24 08:48:52;;;;;;;5.07;1.80;;;7.80;1.00;;;;;;5456796;26;20298;-68
2024/04/24 08:51:24;;;;;;;7.03;1.97;;;8.00;1.00;;;;;;5449018;26;20300;-68
2024/04/24 08:54:01;;;;;;;5.37;2.03;;;8.10;1.00;;;;;;5440779;26;20254;-68
2024/04/24 08:56:36;;;;;;;3.17;1.80;;;8.20;1.00;;;;;;5457424;26;20257;-69
2024/04/24 08:59:12;;;;;;;7.43;2.17;;;8.60;1.00;;;;;;5455088;26;20263;-68
2024/04/24 09:01:51;;;;;;;8.07;2.30;;;8.80;99.90;;;;;;5433678;26;20329;-69
2024/04/24 09:04:22;;;;;;;6.97;2.40;;;9.10;1.00;;;;;;5456749;26;20245;-69
2024/04/24 09:06:52;;;;;;;4.23;2.00;;;9.20;1.00;;;;;;5459500;26;20261;-69
2024/04/24 09:09:27;;;;;;;7.37;2.07;;;9.60;1.00;;;;;;5455790;26;20249;-69
2024/04/24 09:12:03;;;;;;;5.20;1.90;;;10.10;1.00;;;;;;5446477;26;20292;-69
2024/04/24 09:14:37;;;;;;;3.40;1.90;;;10.90;1.00;;;;;;5459093;26;20306;-69
2024/04/24 09:17:09;;;;;;;7.27;2.23;;;11.50;1.00;;;;;;5458545;25;20629;-69
2024/04/24 09:19:40;;;;;;;6.17;2.17;;;11.80;1.00;;;;;;5459930;26;20556;-69
2024/04/24 09:22:10;;;;;;;4.40;1.80;;;12.10;1.00;;;;;;5455417;26;20253;-69
2024/04/24 09:24:45;;;;;;;4.30;2.13;;;12.50;1.00;;;;;;5481564;21;20273;-69
2024/04/24 09:27:18;;;;;;;5.00;2.07;;;12.70;1.00;;;;;;5494687;25;20272;-69
2024/04/24 09:29:48;;;;;;;5.80;1.87;;;12.60;1.00;;;;;;5497909;26;20263;-69
2024/04/24 09:32:22;;;;;;;3.10;1.57;;;12.40;1.00;;;;;;5484407;26;20255;-69
2024/04/24 09:34:52;;;;;;;3.13;1.57;;;12.30;1.00;;;;;;5438216;26;20276;-68
2024/04/24 09:37:22;;;;;;;5.00;2.17;;;12.70;99.90;;;;;;5492462;26;20236;-69
2024/04/24 09:39:52;;;;;;;3.90;1.83;;;12.60;99.90;;;;;;5490393;26;20587;-69
2024/04/24 09:42:23;;;;;;;3.23;1.70;;;12.30;99.90;;;;;;5472761;26;20245;-69
2024/04/24 09:44:55;;;;;;;5.80;1.93;;;12.50;99.90;;;;;;5452989;26;20949;-69
2024/04/24 09:47:30;;;;;;;6.43;1.90;;;13.10;99.90;;;;;;5464549;25;20284;-69
2024/04/24 09:50:03;;;;;;;3.60;1.40;;;12.90;99.90;;;;;;5458984;26;20926;-69
2024/04/24 09:52:33;;;;;;;4.67;1.67;;;11.90;99.90;;;;;;5449464;26;20636;-69
2024/04/24 09:55:04;;;;;;;3.20;1.90;;;10.70;1.00;;;;;;5456442;26;20278;-69
2024/04/24 09:57:35;;;;;;;3.17;2.00;;;9.70;99.90;;;;;;5450274;26;20255;-68
2024/04/24 10:00:06;;;;;;;5.70;1.80;;;9.00;99.90;;;;;;5427833;26;20762;-68
2024/04/24 10:02:44;;;;;;;3.13;1.83;;;8.60;1.00;;;;;;5441699;26;20269;-68
2024/04/24 10:05:19;;;;;;;2.67;1.67;;;8.60;1.00;;;;;;5429212;26;20293;-68
2024/04/24 10:07:55;;;;;;;6.60;1.83;;;8.80;99.90;;;;;;5403446;26;20585;-67
2024/04/24 10:10:31;;;;;;;5.27;2.07;;;9.00;99.90;;;;;;5402288;26;20238;-68
2024/04/24 10:13:03;;;;;;;4.43;2.03;;;9.40;1.00;;;;;;5411094;26;20383;-68
2024/04/24 10:15:42;;;;;;;5.83;2.10;;;9.90;1.00;;;;;;5430649;26;20250;-68
2024/04/24 10:18:16;;;;;;;1.53;1.43;;;10.80;1.00;;;;;;5411294;26;20318;-68
2024/04/24 10:20:47;;;;;;;5.53;1.60;;;12.00;99.90;;;;;;5412046;26;20254;-68
2024/04/24 10:23:19;;;;;;;3.33;1.70;;;12.40;1.00;;;;;;5437941;26;20257;-68
2024/04/24 10:25:50;;;;;;;2.77;1.43;;;12.40;1.00;;;;;;5435839;26;20241;-67
2024/04/24 10:28:23;;;;;;;4.30;1.60;;;12.30;1.00;;;;;;5395114;26;20238;-68
2024/04/24 10:30:56;;;;;;;5.23;2.17;;;12.70;99.90;;;;;;5398099;26;20297;-68
2024/04/24 10:33:31;;;;;;;6.00;2.13;;;13.50;99.90;;;;;;5399385;26;20364;-68
2024/04/24 10:36:01;;;;;;;9.87;1.90;;;14.60;99.90;;;;;;5393714;26;20286;-68
2024/04/24 10:38:34;;;;;;;6.30;2.00;;;14.50;99.90;;;;;;5411206;26;20341;-67
2024/04/24 10:41:06;;;;;;;8.53;1.90;;;14.00;89.80;;;;;;5428572;26;20240;-69
2024/04/24 10:43:36;;;;;;;7.83;2.17;;;13.70;99.90;;;;;;5400346;26;20270;-68
2024/04/24 10:46:08;;;;;;;8.50;1.93;;;13.60;99.90;;;;;;5404425;26;20281;-69
2024/04/24 10:48:57;;;;;;;8.63;2.10;;;13.50;99.90;;;;;;5402205;26;20632;-69
2024/04/24 10:51:32;;;;;;;5.47;2.17;;;13.50;99.90;;;;;;5393615;26;20252;-69
2024/04/24 10:54:13;;;;;;;5.90;2.17;;;14.20;99.90;;;;;;5401415;26;20265;-68
2024/04/24 10:56:45;;;;;;;8.40;2.10;;;15.00;94.10;;;;;;5402743;26;20253;-69
2024/04/24 10:59:16;;;;;;;3.60;1.90;;;15.90;37.50;;;;;;5413204;26;20252;-69
2024/04/24 11:01:48;;;;;;;11.33;2.20;;;15.70;20.10;;;;;;5441845;26;20281;-68
2024/04/24 11:04:27;;;;;;;4.43;1.67;;;14.60;19.50;;;;;;5438305;26;20323;-68
2024/04/24 11:06:57;;;;;;;6.37;1.90;;;13.30;58.60;;;;;;5435224;26;20638;-68
2024/04/24 11:09:25;;;;;;;6.63;1.90;;;12.40;99.90;;;;;;5466575;26;20257;-68
2024/04/24 11:11:57;;;;;;;4.30;1.60;;;12.20;99.90;;;;;;5460882;26;20273;-68
2024/04/24 11:14:28;;;;;;;5.13;1.90;;;11.70;99.90;;;;;;5430311;26;20875;-68
2024/04/24 11:16:59;;;;;;;3.50;1.93;;;11.20;99.90;;;;;;5438483;26;20860;-67
2024/04/24 11:19:32;;;;;;;4.17;1.90;;;11.80;99.90;;;;;;5438566;26;20288;-68
2024/04/24 11:22:02;;;;;;;5.73;2.10;;;13.40;85.40;;;;;;5438040;26;20280;-68
2024/04/24 11:24:33;;;;;;;4.00;1.63;;;14.90;29.20;;;;;;5432663;26;20338;-68
2024/04/24 11:27:06;;;;;;;2.50;1.90;;;16.00;13.70;;;;;;5434508;26;20290;-68
2024/04/24 11:29:40;;;;;;;3.00;1.60;;;16.20;1.00;;;;;;5431953;26;20254;-67
2024/04/24 11:32:11;;;;;;;3.07;1.60;;;15.30;1.00;;;;;;5438630;26;20300;-67
2024/04/24 11:34:42;;;;;;;4.33;1.60;;;14.50;1.00;;;;;;5438157;26;20769;-67
2024/04/24 11:37:13;;;;;;;2.60;1.57;;;14.90;1.00;;;;;;5427449;26;20286;-68
2024/04/24 11:39:45;;;;;;;3.63;1.57;;;15.80;1.00;;;;;;5434325;26;20361;-68
2024/04/24 11:42:15;;;;;;;4.43;1.60;;;16.30;1.00;;;;;;5430677;26;20283;-67
2024/04/24 11:44:46;;;;;;;4.50;1.87;;;17.10;1.00;;;;;;5456272;26;20318;-68
2024/04/24 11:47:19;;;;;;;4.87;1.50;;;17.50;1.00;;;;;;5431830;26;20287;-68
2024/04/24 11:49:54;;;;;;;4.50;1.60;;;17.10;1.00;;;;;;5436819;26;20272;-67
2024/04/24 11:52:26;;;;;;;6.93;1.60;;;16.40;1.00;;;;;;5434424;26;20824;-68
2024/04/24 11:54:56;;;;;;;2.67;1.80;;;16.40;1.00;;;;;;5463081;26;20343;-68
2024/04/24 11:57:26;;;;;;;4.27;1.60;;;16.50;1.00;;;;;;5434870;26;20255;-68
2024/04/24 11:59:57;;;;;;;3.40;1.87;;;16.90;1.00;;;;;;5437382;26;20277;-68
2024/04/24 12:02:34;;;;;;;2.73;1.37;;;17.20;1.00;;;;;;5439319;26;20262;-68
2024/04/24 12:05:08;;;;;;;3.60;1.53;;;17.70;1.00;;;;;;5438495;26;20348;-67
2024/04/24 12:07:45;;;;;;;3.87;1.70;;;17.50;1.00;;;;;;5434680;26;20321;-67
2024/04/24 12:10:21;;;;;;;5.40;1.63;;;16.20;1.00;;;;;;5429270;26;20721;-67
2024/04/24 12:12:53;;;;;;;2.57;1.33;;;15.30;1.00;;;;;;5435700;26;20317;-67
2024/04/24 12:15:23;;;;;;;5.40;1.60;;;15.40;1.00;;;;;;5432455;26;20291;-67
2024/04/24 12:17:54;;;;;;;3.60;1.73;;;15.90;1.00;;;;;;5428835;26;20301;-67
2024/04/24 12:20:27;;;;;;;6.60;1.47;;;16.10;1.00;;;;;;5431653;26;20253;-67
2024/04/24 12:22:57;;;;;;;4.43;1.70;;;16.30;1.00;;;;;;5423046;26;20233;-67
2024/04/24 12:25:27;;;;;;;4.60;1.60;;;16.20;1.00;;;;;;5436539;26;20348;-67
2024/04/24 12:27:57;;;;;;;3.63;1.40;;;16.40;1.00;;;;;;5432087;26;20355;-67
2024/04/24 12:30:27;;;;;;;5.10;1.90;;;16.60;1.00;;;;;;5431697;26;20265;-67
2024/04/24 12:32:58;;;;;;;3.77;1.80;;;16.40;1.00;;;;;;5432676;26;20293;-67
2024/04/24 12:35:31;;;;;;;6.40;1.90;;;15.40;1.00;;;;;;5428411;26;20274;-67
2024/04/24 12:38:01;;;;;;;3.97;1.90;;;14.40;1.00;;;;;;5422659;26;20268;-67
2024/04/24 12:40:32;;;;;;;3.90;1.80;;;13.50;1.00;;;;;;5435108;26;20233;-68
2024/04/24 12:43:02;;;;;;;5.87;1.53;;;12.80;1.00;;;;;;5438692;26;20253;-68
2024/04/24 12:45:34;;;;;;;7.43;1.77;;;12.40;27.90;;;;;;5431582;26;20672;-68
2024/04/24 12:48:05;;;;;;;3.10;2.20;;;12.20;57.60;;;;;;5428222;26;20370;-68
2024/04/24 12:50:39;;;;;;;8.57;2.10;;;11.90;93.80;;;;;;5435871;26;20342;-68
2024/04/24 12:53:09;;;;;;;9.63;2.23;;;11.90;99.20;;;;;;5433399;26;20249;-67
2024/04/24 12:55:40;;;;;;;7.63;2.30;;;11.90;93.70;;;;;;5438998;26;20251;-69
2024/04/24 12:58:13;;;;;;;7.90;2.03;;;11.80;99.90;;;;;;5427436;26;20254;-68
2024/04/24 13:00:43;;;;;;;7.23;2.27;;;11.80;99.90;;;;;;5431177;26;20734;-68
2024/04/24 13:03:13;;;;;;;9.03;2.07;;;12.00;99.90;;;;;;5427006;26;20258;-68
2024/04/24 13:05:46;;;;;;;6.57;2.17;;;12.20;99.90;;;;;;5431530;26;20296;-68
2024/04/24 13:08:16;;;;;;;5.50;1.80;;;12.00;90.60;;;;;;5427569;26;20256;-68
2024/04/24 13:10:46;;;;;;;7.53;2.20;;;11.70;67.20;;;;;;5429625;26;20237;-67
2024/04/24 13:13:17;;;;;;;4.33;1.90;;;11.40;99.90;;;;;;5437062;26;20269;-68
2024/04/24 13:15:47;;;;;;;4.00;2.10;;;11.30;99.90;;;;;;5432454;26;20257;-68
2024/04/24 13:18:17;;;;;;;6.83;2.00;;;11.30;99.90;;;;;;5431653;26;20292;-68
2024/04/24 13:20:53;;;;;;;3.97;2.10;;;11.30;99.90;;;;;;5434732;26;20565;-68